Time,TemperatureF,DewpointF,PressureIn,WindDirection,WindDirectionDegrees,WindSpeedMPH,WindSpeedGustMPH,Humidity,HourlyPrecipIn,Conditions,Clouds,dailyrainin,SoftwareType,DateUTC
2013-04-13 00:00:00,68.0,66.2,29.79,SW,217,0.0,0.0,94,0.00,,---,0.18,VWS V14.01,2013-04-13 04:00:00,
2013-04-13 00:03:00,68.0,66.2,29.79,SW,217,0.0,0.0,94,0.00,,---,0.00,VWS V14.01,2013-04-13 04:03:00,
2013-04-13 00:06:00,68.0,66.5,29.79,SW,217,0.0,0.0,95,0.00,,---,0.00,VWS V14.01,2013-04-13 04:06:00,
2013-04-13 00:09:00,68.0,66.5,29.79,SW,217,0.0,0.0,95,0.00,,---,0.00,VWS V14.01,2013-04-13 04:09:00,
2013-04-13 00:12:00,68.0,66.5,29.79,SW,217,0.0,0.0,95,0.00,,---,0.00,VWS V14.01,2013-04-13 04:12:00,
2013-04-13 00:15:00,68.0,66.2,29.79,SW,217,0.0,1.0,94,0.00,,---,0.00,VWS V14.01,2013-04-13 04:15:00,
2013-04-13 00:18:00,67.9,66.1,29.79,SW,217,0.0,0.0,94,0.00,,---,0.00,VWS V14.01,2013-04-13 04:18:00,
2013-04-13 00:21:00,67.9,66.1,29.79,SW,217,0.0,0.0,94,0.00,,---,0.00,VWS V14.01,2013-04-13 04:21:00,
2013-04-13 00:24:00,67.9,66.1,29.79,SW,217,0.0,0.0,94,0.00,,---,0.00,VWS V14.01,2013-04-13 04:24:00,
2013-04-13 00:27:00,67.8,66.0,29.79,SW,217,0.0,0.0,94,0.00,,---,0.00,VWS V14.01,2013-04-13 04:27:00,
2013-04-13 00:30:00,67.7,65.9,29.79,SW,217,0.0,0.0,94,0.00,,---,0.00,VWS V14.01,2013-04-13 04:30:00,
2013-04-13 00:33:00,67.6,65.8,29.79,SW,217,0.0,0.0,94,0.00,,---,0.00,VWS V14.01,2013-04-13 04:33:00,
2013-04-13 00:36:00,67.6,65.8,29.79,SW,217,0.0,1.0,94,0.00,,---,0.00,VWS V14.01,2013-04-13 04:36:00,
2013-04-13 00:39:00,67.5,65.7,29.79,SW,217,0.0,1.0,94,0.00,,---,0.00,VWS V14.01,2013-04-13 04:39:00,
2013-04-13 00:42:00,67.5,65.7,29.79,SW,217,0.0,1.0,94,0.00,,---,0.00,VWS V14.01,2013-04-13 04:42:00,
2013-04-13 00:45:00,67.4,65.6,29.79,SW,217,0.0,1.0,94,0.00,,---,0.00,VWS V14.01,2013-04-13 04:45:00,
2013-04-13 00:48:00,67.4,65.3,29.79,SW,217,0.0,0.0,93,0.00,,---,0.00,VWS V14.01,2013-04-13 04:48:00,
2013-04-13 00:51:00,67.3,65.2,29.79,SW,217,0.0,0.0,93,0.00,,---,0.00,VWS V14.01,2013-04-13 04:51:00,
2013-04-13 00:54:00,67.3,65.2,29.79,SW,217,0.0,0.0,93,0.00,,---,0.00,VWS V14.01,2013-04-13 04:54:00,
2013-04-13 00:57:00,67.2,65.1,29.79,SW,217,0.0,1.0,93,0.00,,---,0.00,VWS V14.01,2013-04-13 04:57:00,
2013-04-13 01:00:00,67.2,65.1,29.79,SW,217,0.0,1.0,93,0.00,,---,0.00,VWS V14.01,2013-04-13 05:00:00,
2013-04-13 01:03:00,67.1,65.0,29.79,SW,217,0.0,0.0,93,0.00,,---,0.00,VWS V14.01,2013-04-13 05:03:00,
2013-04-13 01:06:00,67.1,65.0,29.79,SW,217,1.0,1.0,93,0.00,,---,0.00,VWS V14.01,2013-04-13 05:06:00,
2013-04-13 01:09:00,67.0,64.9,29.79,SW,217,0.0,2.0,93,0.00,,---,0.00,VWS V14.01,2013-04-13 05:09:00,
2013-04-13 01:12:00,66.8,64.4,29.79,SW,217,1.0,2.0,92,0.00,,---,0.00,VWS V14.01,2013-04-13 05:12:00,
2013-04-13 01:15:00,66.7,64.0,29.80,SW,217,1.0,2.0,91,0.00,,---,0.00,VWS V14.01,2013-04-13 05:15:00,
2013-04-13 01:18:00,66.3,62.6,29.80,West,271,1.0,3.0,88,0.00,,---,0.00,VWS V14.01,2013-04-13 05:18:00,
2013-04-13 01:21:00,66.0,61.0,29.80,West,271,0.0,3.0,84,0.00,,---,0.00,VWS V14.01,2013-04-13 05:21:00,
2013-04-13 01:24:00,65.8,60.5,29.80,West,278,1.0,3.0,83,0.00,,---,0.00,VWS V14.01,2013-04-13 05:24:00,
2013-04-13 01:27:00,65.6,59.6,29.80,NNE,26,0.0,3.0,81,0.00,,---,0.00,VWS V14.01,2013-04-13 05:27:00,
2013-04-13 01:30:00,65.4,58.7,29.80,NNE,26,0.0,3.0,79,0.00,,---,0.00,VWS V14.01,2013-04-13 05:30:00,
2013-04-13 01:33:00,65.2,58.2,29.80,North,355,0.0,2.0,78,0.00,,---,0.00,VWS V14.01,2013-04-13 05:33:00,
2013-04-13 01:36:00,65.0,57.3,29.80,NNE,17,0.0,4.0,76,0.00,,---,0.00,VWS V14.01,2013-04-13 05:36:00,
2013-04-13 01:39:00,64.9,57.5,29.80,NNE,17,0.0,4.0,77,0.00,,---,0.00,VWS V14.01,2013-04-13 05:39:00,
2013-04-13 01:42:00,64.8,57.4,29.80,NNE,17,0.0,4.0,77,0.00,,---,0.00,VWS V14.01,2013-04-13 05:42:00,
2013-04-13 01:45:00,64.8,57.1,29.80,NNE,17,0.0,4.0,76,0.00,,---,0.00,VWS V14.01,2013-04-13 05:45:00,
2013-04-13 01:48:00,64.7,57.0,29.80,NNE,17,0.0,0.0,76,0.00,,---,0.00,VWS V14.01,2013-04-13 05:48:00,
2013-04-13 01:51:00,64.6,56.9,29.80,NNE,17,0.0,0.0,76,0.00,,---,0.00,VWS V14.01,2013-04-13 05:51:00,
2013-04-13 01:55:00,64.6,56.9,29.80,NNE,17,0.0,0.0,76,0.00,,---,0.00,VWS V14.01,2013-04-13 05:55:00,
2013-04-13 01:57:00,64.5,56.4,29.80,West,279,3.0,3.0,75,0.00,,---,0.00,VWS V14.01,2013-04-13 05:57:00,
2013-04-13 02:00:00,64.5,56.4,29.81,West,279,0.0,3.0,75,0.00,,---,0.00,VWS V14.01,2013-04-13 06:00:00,
2013-04-13 02:03:00,64.4,56.3,29.81,West,279,0.0,0.0,75,0.00,,---,0.00,VWS V14.01,2013-04-13 06:03:00,
2013-04-13 02:07:00,64.3,56.2,29.81,West,279,0.0,0.0,75,0.00,,---,0.00,VWS V14.01,2013-04-13 06:07:00,
2013-04-13 02:10:00,64.3,56.2,29.81,West,279,0.0,0.0,75,0.00,,---,0.00,VWS V14.01,2013-04-13 06:10:00,
2013-04-13 02:13:00,64.3,56.2,29.81,NW,320,0.0,2.0,75,0.00,,---,0.00,VWS V14.01,2013-04-13 06:13:00,
2013-04-13 02:15:00,64.2,56.1,29.81,NW,320,0.0,2.0,75,0.00,,---,0.00,VWS V14.01,2013-04-13 06:15:00,
2013-04-13 02:16:00,64.2,56.1,29.81,NW,320,0.0,0.0,75,0.00,,---,0.00,VWS V14.01,2013-04-13 06:16:00,
2013-04-13 02:19:00,64.1,56.0,29.81,NW,320,0.0,0.0,75,0.00,,---,0.00,VWS V14.01,2013-04-13 06:19:00,
2013-04-13 02:22:00,64.1,56.0,29.81,NW,320,0.0,0.0,75,0.00,,---,0.00,VWS V14.01,2013-04-13 06:22:00,
2013-04-13 02:25:00,64.0,55.9,29.81,NW,320,0.0,0.0,75,0.00,,---,0.00,VWS V14.01,2013-04-13 06:25:00,
2013-04-13 02:30:00,63.8,56.1,29.81,NW,320,0.0,0.0,76,0.00,,---,0.00,VWS V14.01,2013-04-13 06:30:00,
2013-04-13 02:31:00,63.8,56.1,29.81,NW,320,0.0,0.0,76,0.00,,---,0.00,VWS V14.01,2013-04-13 06:31:00,
2013-04-13 02:34:00,63.8,56.1,29.81,NW,320,0.0,0.0,76,0.00,,---,0.00,VWS V14.01,2013-04-13 06:34:00,
2013-04-13 02:37:00,63.7,56.0,29.81,NW,320,0.0,0.0,76,0.00,,---,0.00,VWS V14.01,2013-04-13 06:37:00,
2013-04-13 02:43:00,63.5,55.4,29.81,NW,320,0.0,0.0,75,0.00,,---,0.00,VWS V14.01,2013-04-13 06:43:00,
2013-04-13 02:45:00,63.5,55.8,29.81,NW,320,0.0,0.0,76,0.00,,---,0.00,VWS V14.01,2013-04-13 06:45:00,
2013-04-13 02:46:00,63.5,55.8,29.81,NW,320,0.0,0.0,76,0.00,,---,0.00,VWS V14.01,2013-04-13 06:46:00,
2013-04-13 02:49:00,63.4,56.1,29.81,NW,320,0.0,0.0,77,0.00,,---,0.00,VWS V14.01,2013-04-13 06:49:00,
2013-04-13 02:52:00,63.3,56.0,29.81,NW,320,0.0,0.0,77,0.00,,---,0.00,VWS V14.01,2013-04-13 06:52:00,
2013-04-13 02:58:00,63.2,56.2,29.81,NW,320,0.0,0.0,78,0.00,,---,0.00,VWS V14.01,2013-04-13 06:58:00,
2013-04-13 03:00:00,63.2,56.2,29.81,NW,320,0.0,0.0,78,0.00,,---,0.00,VWS V14.01,2013-04-13 07:00:00,
2013-04-13 03:05:00,63.0,56.0,29.81,NW,320,0.0,0.0,78,0.00,,---,0.00,VWS V14.01,2013-04-13 07:05:00,
2013-04-13 03:08:00,62.9,55.9,29.81,NW,320,0.0,0.0,78,0.00,,---,0.00,VWS V14.01,2013-04-13 07:08:00,
2013-04-13 03:11:00,62.9,55.9,29.81,NW,320,0.0,0.0,78,0.00,,---,0.00,VWS V14.01,2013-04-13 07:11:00,
2013-04-13 03:14:00,62.7,56.1,29.81,NW,320,0.0,0.0,79,0.00,,---,0.00,VWS V14.01,2013-04-13 07:14:00,
2013-04-13 03:15:00,62.7,56.1,29.81,NW,320,0.0,0.0,79,0.00,,---,0.00,VWS V14.01,2013-04-13 07:15:00,
2013-04-13 03:26:00,62.2,56.0,29.81,NW,320,0.0,0.0,80,0.00,,---,0.00,VWS V14.01,2013-04-13 07:26:00,
2013-04-13 03:29:00,62.1,55.9,29.81,NW,320,0.0,0.0,80,0.00,,---,0.00,VWS V14.01,2013-04-13 07:29:00,
2013-04-13 03:30:00,62.1,55.9,29.81,NW,320,0.0,0.0,80,0.00,,---,0.00,VWS V14.01,2013-04-13 07:30:00,
2013-04-13 03:32:00,62.0,55.8,29.81,NW,320,0.0,0.0,80,0.00,,---,0.00,VWS V14.01,2013-04-13 07:32:00,
2013-04-13 03:35:00,61.8,55.6,29.81,NW,320,0.0,0.0,80,0.00,,---,0.00,VWS V14.01,2013-04-13 07:35:00,
2013-04-13 03:38:00,61.7,55.5,29.81,NW,320,0.0,0.0,80,0.00,,---,0.00,VWS V14.01,2013-04-13 07:38:00,
2013-04-13 03:41:00,61.6,55.0,29.81,NW,320,0.0,0.0,79,0.00,,---,0.00,VWS V14.01,2013-04-13 07:41:00,
2013-04-13 03:44:00,61.4,54.8,29.81,NW,320,0.0,0.0,79,0.00,,---,0.00,VWS V14.01,2013-04-13 07:44:00,
2013-04-13 03:45:00,61.4,54.8,29.81,NW,320,0.0,0.0,79,0.00,,---,0.00,VWS V14.01,2013-04-13 07:45:00,
2013-04-13 03:51:00,61.2,54.6,29.81,NW,320,0.0,0.0,79,0.00,,---,0.00,VWS V14.01,2013-04-13 07:51:00,
2013-04-13 03:54:00,61.1,54.5,29.81,NW,320,0.0,0.0,79,0.00,,---,0.00,VWS V14.01,2013-04-13 07:54:00,
2013-04-13 03:57:00,61.0,54.1,29.81,NW,320,0.0,0.0,78,0.00,,---,0.00,VWS V14.01,2013-04-13 07:57:00,
2013-04-13 04:00:00,60.9,54.0,29.81,NW,320,0.0,0.0,78,0.00,,---,0.00,VWS V14.01,2013-04-13 08:00:00,
2013-04-13 04:03:00,60.8,53.9,29.81,NW,320,0.0,0.0,78,0.00,,---,0.00,VWS V14.01,2013-04-13 08:03:00,
2013-04-13 04:06:00,60.7,53.8,29.81,NW,320,0.0,0.0,78,0.00,,---,0.00,VWS V14.01,2013-04-13 08:06:00,
2013-04-13 04:12:00,60.5,53.3,29.81,NW,320,0.0,0.0,77,0.00,,---,0.00,VWS V14.01,2013-04-13 08:12:00,
2013-04-13 04:15:00,60.5,53.3,29.81,NW,320,0.0,0.0,77,0.00,,---,0.00,VWS V14.01,2013-04-13 08:15:00,
2013-04-13 04:18:00,60.4,53.2,29.81,NW,320,0.0,0.0,77,0.00,,---,0.00,VWS V14.01,2013-04-13 08:18:00,
2013-04-13 04:21:00,60.3,52.7,29.81,NW,320,0.0,0.0,76,0.00,,---,0.00,VWS V14.01,2013-04-13 08:21:00,
2013-04-13 04:24:00,60.2,52.6,29.81,NW,320,0.0,0.0,76,0.00,,---,0.00,VWS V14.01,2013-04-13 08:24:00,
2013-04-13 04:27:00,60.1,52.9,29.81,NW,320,0.0,1.0,77,0.00,,---,0.00,VWS V14.01,2013-04-13 08:27:00,
2013-04-13 04:30:00,60.1,52.9,29.82,NW,320,0.0,1.0,77,0.00,,---,0.00,VWS V14.01,2013-04-13 08:30:00,
2013-04-13 04:34:00,60.0,52.4,29.82,NW,320,0.0,0.0,76,0.00,,---,0.00,VWS V14.01,2013-04-13 08:34:00,
2013-04-13 04:37:00,59.9,52.3,29.82,NW,321,0.0,1.0,76,0.00,,---,0.00,VWS V14.01,2013-04-13 08:37:00,
2013-04-13 04:40:00,59.8,52.2,29.82,NW,321,0.0,1.0,76,0.00,,---,0.00,VWS V14.01,2013-04-13 08:40:00,
2013-04-13 04:43:00,59.7,51.8,29.82,NW,321,0.0,1.0,75,0.00,,---,0.00,VWS V14.01,2013-04-13 08:43:00,
2013-04-13 04:45:00,59.7,51.8,29.83,NW,321,0.0,1.0,75,0.00,,---,0.00,VWS V14.01,2013-04-13 08:45:00,
2013-04-13 04:46:00,59.6,51.7,29.83,NW,321,0.0,0.0,75,0.00,,---,0.00,VWS V14.01,2013-04-13 08:46:00,
2013-04-13 04:49:00,59.6,51.3,29.83,North,355,0.0,4.0,74,0.00,,---,0.00,VWS V14.01,2013-04-13 08:49:00,
2013-04-13 04:58:00,59.4,51.1,29.83,NNE,22,0.0,4.0,74,0.00,,---,0.00,VWS V14.01,2013-04-13 08:58:00,
2013-04-13 05:01:00,59.4,51.1,29.83,NNE,22,0.0,0.0,74,0.00,,---,0.00,VWS V14.01,2013-04-13 09:01:00,
2013-04-13 05:04:00,59.3,51.0,29.83,NNE,22,0.0,0.0,74,0.00,,---,0.00,VWS V14.01,2013-04-13 09:04:00,
2013-04-13 05:07:00,59.3,51.0,29.83,NNE,21,3.0,3.0,74,0.00,,---,0.00,VWS V14.01,2013-04-13 09:07:00,
2013-04-13 05:14:00,59.2,50.6,29.83,North,10,0.0,6.0,73,0.00,,---,0.00,VWS V14.01,2013-04-13 09:14:00,
2013-04-13 05:15:00,59.2,50.9,29.83,NNE,13,2.0,6.0,74,0.00,,---,0.00,VWS V14.01,2013-04-13 09:15:00,
2013-04-13 05:23:00,59.1,50.5,29.83,NNE,13,0.0,2.0,73,0.00,,---,0.00,VWS V14.01,2013-04-13 09:23:00,
2013-04-13 05:29:00,59.1,49.7,29.83,NNE,26,0.0,7.0,71,0.00,,---,0.00,VWS V14.01,2013-04-13 09:29:00,
2013-04-13 05:30:00,59.1,49.7,29.83,NNE,26,1.0,7.0,71,0.00,,---,0.00,VWS V14.01,2013-04-13 09:30:00,
2013-04-13 05:32:00,59.0,49.6,29.83,NNE,26,0.0,2.0,71,0.00,,---,0.00,VWS V14.01,2013-04-13 09:32:00,
2013-04-13 05:35:00,59.0,50.0,29.83,NNE,26,0.0,2.0,72,0.00,,---,0.00,VWS V14.01,2013-04-13 09:35:00,
2013-04-13 05:38:00,58.9,49.5,29.83,NNW,335,1.0,7.0,71,0.00,,---,0.00,VWS V14.01,2013-04-13 09:38:00,
2013-04-13 05:41:00,58.9,49.5,29.83,NNW,335,0.0,7.0,71,0.00,,---,0.00,VWS V14.01,2013-04-13 09:41:00,
2013-04-13 05:44:00,58.9,49.5,29.84,NNE,30,1.0,7.0,71,0.00,,---,0.00,VWS V14.01,2013-04-13 09:44:00,
2013-04-13 05:45:00,58.9,49.5,29.84,NNE,30,0.0,7.0,71,0.00,,---,0.00,VWS V14.01,2013-04-13 09:45:00,
2013-04-13 05:47:00,58.9,49.5,29.84,NNE,13,1.0,5.0,71,0.00,,---,0.00,VWS V14.01,2013-04-13 09:47:00,
2013-04-13 05:50:00,58.8,49.4,29.84,NNW,336,0.0,6.0,71,0.00,,---,0.00,VWS V14.01,2013-04-13 09:50:00,
2013-04-13 05:53:00,58.7,49.3,29.84,NNW,338,0.0,6.0,71,0.00,,---,0.00,VWS V14.01,2013-04-13 09:53:00,
2013-04-13 05:57:00,58.7,49.3,29.84,NNW,339,1.0,6.0,71,0.00,,---,0.00,VWS V14.01,2013-04-13 09:57:00,
2013-04-13 06:00:00,58.7,49.3,29.84,NNE,32,0.0,6.0,71,0.00,,---,0.00,VWS V14.01,2013-04-13 10:00:00,
2013-04-13 06:03:00,58.6,49.2,29.84,NNE,32,0.0,2.0,71,0.00,,---,0.00,VWS V14.01,2013-04-13 10:03:00,
2013-04-13 06:06:00,58.6,49.2,29.84,NNE,32,0.0,3.0,71,0.00,,---,0.00,VWS V14.01,2013-04-13 10:06:00,
2013-04-13 06:09:00,58.5,49.5,29.84,NNE,32,0.0,3.0,72,0.00,,---,0.00,VWS V14.01,2013-04-13 10:09:00,
2013-04-13 06:12:00,58.4,49.0,29.84,North,355,0.0,4.0,71,0.00,,---,0.00,VWS V14.01,2013-04-13 10:12:00,
2013-04-13 06:15:00,58.4,49.0,29.84,North,360,0.0,4.0,71,0.00,,---,0.00,VWS V14.01,2013-04-13 10:15:00,
2013-04-13 06:18:00,58.4,49.4,29.84,North,5,3.0,3.0,72,0.00,,---,0.00,VWS V14.01,2013-04-13 10:18:00,
2013-04-13 06:24:00,58.2,48.8,29.84,NNE,22,0.0,4.0,71,0.00,,---,0.00,VWS V14.01,2013-04-13 10:24:00,
2013-04-13 06:27:00,58.1,49.1,29.84,NNE,20,0.0,4.0,72,0.00,,---,0.00,VWS V14.01,2013-04-13 10:27:00,
2013-04-13 06:30:00,58.1,49.1,29.85,NNE,20,0.0,4.0,72,0.00,,---,0.00,VWS V14.01,2013-04-13 10:30:00,
2013-04-13 06:33:00,58.0,49.0,29.85,NNE,20,0.0,0.0,72,0.00,,---,0.00,VWS V14.01,2013-04-13 10:33:00,
2013-04-13 06:39:00,57.8,48.8,29.85,NNE,20,0.0,2.0,72,0.00,,---,0.00,VWS V14.01,2013-04-13 10:39:00,
2013-04-13 06:42:00,57.7,49.1,29.85,NNE,20,0.0,2.0,73,0.00,,---,0.00,VWS V14.01,2013-04-13 10:42:00,
2013-04-13 06:45:00,57.6,49.0,29.86,NNE,20,0.0,2.0,73,0.00,,---,0.00,VWS V14.01,2013-04-13 10:45:00,
2013-04-13 06:48:00,57.5,48.9,29.86,NNE,20,0.0,3.0,73,0.00,,---,0.00,VWS V14.01,2013-04-13 10:48:00,
2013-04-13 06:51:00,57.5,48.9,29.86,NNE,20,0.0,3.0,73,0.00,,---,0.00,VWS V14.01,2013-04-13 10:51:00,
2013-04-13 06:58:00,57.3,49.1,29.86,NNE,19,0.0,3.0,74,0.00,,---,0.00,VWS V14.01,2013-04-13 10:58:00,
2013-04-13 07:01:00,57.2,49.0,29.87,NNE,19,0.0,0.0,74,0.00,,---,0.00,VWS V14.01,2013-04-13 11:01:00,
2013-04-13 07:04:00,57.1,48.9,29.87,NNE,19,0.0,1.0,74,0.00,,---,0.00,VWS V14.01,2013-04-13 11:04:00,
2013-04-13 07:07:00,57.1,48.9,29.87,NNE,19,0.0,1.0,74,0.00,,---,0.00,VWS V14.01,2013-04-13 11:07:00,
2013-04-13 07:10:00,57.0,48.8,29.87,NNE,19,0.0,1.0,74,0.00,,---,0.00,VWS V14.01,2013-04-13 11:10:00,
2013-04-13 07:13:00,57.0,48.8,29.87,NNE,20,0.0,1.0,74,0.00,,---,0.00,VWS V14.01,2013-04-13 11:13:00,
2013-04-13 07:15:00,56.9,48.7,29.88,NNE,19,0.0,1.0,74,0.00,,---,0.00,VWS V14.01,2013-04-13 11:15:00,
2013-04-13 07:16:00,56.9,49.1,29.88,NNE,19,0.0,0.0,75,0.00,,---,0.00,VWS V14.01,2013-04-13 11:16:00,
2013-04-13 07:19:00,56.9,49.1,29.88,NNE,19,0.0,0.0,75,0.00,,---,0.00,VWS V14.01,2013-04-13 11:19:00,
2013-04-13 07:22:00,56.8,49.0,29.88,NNE,19,0.0,0.0,75,0.00,,---,0.00,VWS V14.01,2013-04-13 11:22:00,
2013-04-13 07:28:00,56.8,49.3,29.88,NNE,19,0.0,1.0,76,0.00,,---,0.00,VWS V14.01,2013-04-13 11:28:00,
2013-04-13 07:30:00,56.8,49.3,29.89,NNE,19,0.0,1.0,76,0.00,,---,0.00,VWS V14.01,2013-04-13 11:30:00,
2013-04-13 07:31:00,56.7,49.2,29.89,NNE,19,0.0,0.0,76,0.00,,---,0.00,VWS V14.01,2013-04-13 11:31:00,
2013-04-13 07:34:00,56.7,49.2,29.89,NNE,19,0.0,0.0,76,0.00,,---,0.00,VWS V14.01,2013-04-13 11:34:00,
2013-04-13 07:37:00,56.7,49.6,29.89,NNE,19,0.0,0.0,77,0.00,,---,0.00,VWS V14.01,2013-04-13 11:37:00,
2013-04-13 07:45:00,56.7,49.6,29.90,NNE,20,0.0,1.0,77,0.00,,---,0.00,VWS V14.01,2013-04-13 11:45:00,
2013-04-13 07:46:00,56.7,49.6,29.90,NNE,20,0.0,2.0,77,0.00,,---,0.00,VWS V14.01,2013-04-13 11:46:00,
2013-04-13 07:53:00,56.8,49.7,29.90,NNE,19,0.0,3.0,77,0.00,,---,0.00,VWS V14.01,2013-04-13 11:53:00,
2013-04-13 07:56:00,56.9,49.4,29.90,North,5,1.0,6.0,76,0.00,,---,0.00,VWS V14.01,2013-04-13 11:56:00,
2013-04-13 07:59:00,57.0,49.5,29.90,North,5,0.0,6.0,76,0.00,,---,0.00,VWS V14.01,2013-04-13 11:59:00,
2013-04-13 08:00:00,57.0,49.5,29.90,North,5,0.0,6.0,76,0.00,,---,0.00,VWS V14.01,2013-04-13 12:00:00,
2013-04-13 08:02:00,57.1,49.6,29.90,North,11,1.0,3.0,76,0.00,,---,0.00,VWS V14.01,2013-04-13 12:02:00,
2013-04-13 08:08:00,57.2,50.1,29.90,North,11,0.0,3.0,77,0.00,,---,0.00,VWS V14.01,2013-04-13 12:08:00,
2013-04-13 08:11:00,57.3,50.2,29.90,North,11,0.0,3.0,77,0.00,,---,0.00,VWS V14.01,2013-04-13 12:11:00,
2013-04-13 08:14:00,57.5,50.4,29.90,North,5,0.0,5.0,77,0.00,,---,0.00,VWS V14.01,2013-04-13 12:14:00,
2013-04-13 08:15:00,57.5,50.4,29.90,North,5,0.0,5.0,77,0.00,,---,0.00,VWS V14.01,2013-04-13 12:15:00,
2013-04-13 08:17:00,57.7,50.5,29.90,North,355,0.0,5.0,77,0.00,,---,0.00,VWS V14.01,2013-04-13 12:17:00,
2013-04-13 08:23:00,58.1,50.6,29.90,North,355,0.0,5.0,76,0.00,,---,0.00,VWS V14.01,2013-04-13 12:23:00,
2013-04-13 08:26:00,58.4,50.5,29.90,NNE,20,2.0,6.0,75,0.00,,---,0.00,VWS V14.01,2013-04-13 12:26:00,
2013-04-13 08:29:00,58.6,50.7,29.90,NNE,15,7.0,7.0,75,0.00,,---,0.00,VWS V14.01,2013-04-13 12:29:00,
2013-04-13 08:30:00,58.6,50.7,29.90,NE,34,5.0,7.0,75,0.00,,---,0.00,VWS V14.01,2013-04-13 12:30:00,
2013-04-13 08:32:00,58.9,50.6,29.90,North,355,5.0,7.0,74,0.00,,---,0.00,VWS V14.01,2013-04-13 12:32:00,
2013-04-13 08:35:00,59.1,50.8,29.90,NE,40,1.0,7.0,74,0.00,,---,0.00,VWS V14.01,2013-04-13 12:35:00,
2013-04-13 08:38:00,59.3,51.0,29.90,NE,40,0.0,7.0,74,0.00,,---,0.00,VWS V14.01,2013-04-13 12:38:00,
2013-04-13 08:44:00,59.6,51.3,29.91,NE,40,0.0,7.0,74,0.00,,---,0.00,VWS V14.01,2013-04-13 12:44:00,
2013-04-13 08:45:00,59.6,51.3,29.91,NE,40,0.0,7.0,74,0.00,,---,0.00,VWS V14.01,2013-04-13 12:45:00,
2013-04-13 08:48:00,59.8,51.1,29.91,NNE,19,1.0,4.0,73,0.00,,---,0.00,VWS V14.01,2013-04-13 12:48:00,
2013-04-13 08:51:00,60.1,51.4,29.91,NNW,347,0.0,6.0,73,0.00,,---,0.00,VWS V14.01,2013-04-13 12:51:00,
2013-04-13 08:54:00,60.3,51.6,29.91,NNW,348,0.0,6.0,73,0.00,,---,0.00,VWS V14.01,2013-04-13 12:54:00,
2013-04-13 08:57:00,60.5,51.4,29.91,East,88,0.0,6.0,72,0.00,,---,0.00,VWS V14.01,2013-04-13 12:57:00,
2013-04-13 09:00:00,60.7,52.0,29.90,East,88,0.0,6.0,73,0.00,,---,0.00,VWS V14.01,2013-04-13 13:00:00,
2013-04-13 09:03:00,61.0,51.5,29.90,North,5,1.0,4.0,71,0.00,,---,0.00,VWS V14.01,2013-04-13 13:03:00,
2013-04-13 09:06:00,61.4,52.3,29.90,North,5,0.0,4.0,72,0.00,,---,0.00,VWS V14.01,2013-04-13 13:06:00,
2013-04-13 09:12:00,62.1,51.4,29.90,NNW,338,3.0,6.0,68,0.00,,---,0.00,VWS V14.01,2013-04-13 13:12:00,
2013-04-13 09:15:00,62.4,50.9,29.90,North,5,0.0,6.0,66,0.00,,---,0.00,VWS V14.01,2013-04-13 13:15:00,
2013-04-13 09:24:00,63.3,50.9,29.90,North,5,0.0,6.0,64,0.00,,---,0.00,VWS V14.01,2013-04-13 13:24:00,
2013-04-13 09:27:00,63.6,51.2,29.90,NE,45,4.0,7.0,64,0.00,,---,0.00,VWS V14.01,2013-04-13 13:27:00,
2013-04-13 09:30:00,63.7,51.3,29.90,NNW,329,3.0,7.0,64,0.00,,---,0.00,VWS V14.01,2013-04-13 13:30:00,
2013-04-13 09:37:00,64.3,51.0,29.90,ENE,74,0.0,7.0,62,0.00,,---,0.00,VWS V14.01,2013-04-13 13:37:00,
2013-04-13 09:40:00,64.5,51.2,29.90,ENE,74,0.0,7.0,62,0.00,,---,0.00,VWS V14.01,2013-04-13 13:40:00,
2013-04-13 09:45:00,65.0,51.7,29.91,ENE,74,0.0,7.0,62,0.00,,---,0.00,VWS V14.01,2013-04-13 13:45:00,
2013-04-13 09:49:00,65.4,50.7,29.91,East,81,0.0,6.0,59,0.00,,---,0.00,VWS V14.01,2013-04-13 13:49:00,
2013-04-13 09:55:00,65.8,51.1,29.91,NNE,30,0.0,6.0,59,0.00,,---,0.00,VWS V14.01,2013-04-13 13:55:00,
2013-04-13 09:58:00,66.1,51.4,29.91,NNW,330,0.0,6.0,59,0.00,,---,0.00,VWS V14.01,2013-04-13 13:58:00,
2013-04-13 10:00:00,66.2,51.5,29.91,ENE,69,1.0,6.0,59,0.00,,---,0.00,VWS V14.01,2013-04-13 14:00:00,
2013-04-13 10:01:00,66.3,51.1,29.91,NNE,28,0.0,3.0,58,0.00,,---,0.00,VWS V14.01,2013-04-13 14:01:00,
2013-04-13 10:04:00,66.6,51.4,29.91,NNE,27,0.0,3.0,58,0.00,,---,0.00,VWS V14.01,2013-04-13 14:04:00,
2013-04-13 10:07:00,66.8,51.6,29.91,North,355,0.0,7.0,58,0.00,,---,0.00,VWS V14.01,2013-04-13 14:07:00,
2013-04-13 10:13:00,67.0,50.8,29.91,North,355,0.0,7.0,56,0.00,,---,0.00,VWS V14.01,2013-04-13 14:13:00,
2013-04-13 10:15:00,67.0,50.8,29.92,NNE,16,1.0,7.0,56,0.00,,---,0.00,VWS V14.01,2013-04-13 14:15:00,
2013-04-13 10:16:00,67.0,50.8,29.92,NE,38,2.0,4.0,56,0.00,,---,0.00,VWS V14.01,2013-04-13 14:16:00,
2013-04-13 10:19:00,67.2,51.5,29.92,ENE,78,2.0,4.0,57,0.00,,---,0.00,VWS V14.01,2013-04-13 14:19:00,
2013-04-13 10:22:00,67.4,51.7,29.92,North,351,3.0,4.0,57,0.00,,---,0.00,VWS V14.01,2013-04-13 14:22:00,
2013-04-13 10:26:00,67.5,51.3,29.92,NNE,19,0.0,4.0,56,0.00,,---,0.00,VWS V14.01,2013-04-13 14:26:00,
2013-04-13 10:32:00,67.9,51.6,29.92,NNW,348,4.0,4.0,56,0.00,,---,0.00,VWS V14.01,2013-04-13 14:32:00,
2013-04-13 10:38:00,68.3,51.5,29.92,ENE,59,1.0,4.0,55,0.00,,---,0.00,VWS V14.01,2013-04-13 14:38:00,
2013-04-13 10:41:00,68.5,51.2,29.92,South,176,0.0,5.0,54,0.00,,---,0.00,VWS V14.01,2013-04-13 14:41:00,
2013-04-13 10:44:00,68.7,51.9,29.92,North,360,1.0,5.0,55,0.00,,---,0.00,VWS V14.01,2013-04-13 14:44:00,
2013-04-13 10:47:00,68.9,52.1,29.92,NW,326,4.0,5.0,55,0.00,,---,0.00,VWS V14.01,2013-04-13 14:47:00,
2013-04-13 10:53:00,69.1,51.3,29.92,North,351,0.0,6.0,53,0.00,,---,0.00,VWS V14.01,2013-04-13 14:53:00,
2013-04-13 10:56:00,69.3,51.5,29.92,ENE,59,0.0,6.0,53,0.00,,---,0.00,VWS V14.01,2013-04-13 14:56:00,
2013-04-13 10:59:00,69.6,51.2,29.93,NNW,342,2.0,6.0,52,0.00,,---,0.00,VWS V14.01,2013-04-13 14:59:00,
2013-04-13 11:02:00,69.7,51.8,29.93,ENE,67,0.0,3.0,53,0.00,,---,0.00,VWS V14.01,2013-04-13 15:02:00,
2013-04-13 11:05:00,69.8,51.9,29.93,NE,46,0.0,3.0,53,0.00,,---,0.00,VWS V14.01,2013-04-13 15:05:00,
2013-04-13 11:08:00,70.1,51.7,29.93,North,355,0.0,6.0,52,0.00,,---,0.00,VWS V14.01,2013-04-13 15:08:00,
2013-04-13 11:15:00,70.4,51.4,29.93,North,5,0.0,6.0,51,0.00,,---,0.00,VWS V14.01,2013-04-13 15:15:00,
2013-04-13 11:18:00,70.3,50.3,29.93,North,355,3.0,7.0,49,0.00,,---,0.00,VWS V14.01,2013-04-13 15:18:00,
2013-04-13 11:24:00,70.3,51.3,29.93,NNW,337,1.0,7.0,51,0.00,,---,0.00,VWS V14.01,2013-04-13 15:24:00,
2013-04-13 11:27:00,70.3,50.8,29.93,North,350,0.0,7.0,50,0.00,,---,0.00,VWS V14.01,2013-04-13 15:27:00,
2013-04-13 11:30:00,70.5,52.6,29.93,North,349,0.0,7.0,53,0.00,,---,0.00,VWS V14.01,2013-04-13 15:30:00,
2013-04-13 11:33:00,70.8,51.3,29.93,NNE,12,1.0,6.0,50,0.00,,---,0.00,VWS V14.01,2013-04-13 15:33:00,
2013-04-13 11:36:00,71.2,52.2,29.93,NE,55,3.0,6.0,51,0.00,,---,0.00,VWS V14.01,2013-04-13 15:36:00,
2013-04-13 11:42:00,71.8,52.2,29.93,NE,50,0.0,6.0,50,0.00,,---,0.00,VWS V14.01,2013-04-13 15:42:00,
2013-04-13 11:45:00,72.3,53.2,29.93,NE,50,0.0,6.0,51,0.00,,---,0.00,VWS V14.01,2013-04-13 15:45:00,
2013-04-13 11:48:00,73.1,53.4,29.93,ENE,61,0.0,3.0,50,0.00,,---,0.00,VWS V14.01,2013-04-13 15:48:00,
2013-04-13 11:51:00,73.5,52.6,29.93,ENE,61,0.0,3.0,48,0.00,,---,0.00,VWS V14.01,2013-04-13 15:51:00,
2013-04-13 11:54:00,73.6,51.6,29.93,NNE,19,0.0,5.0,46,0.00,,---,0.00,VWS V14.01,2013-04-13 15:54:00,
2013-04-13 12:00:00,73.7,52.2,29.93,NNE,28,0.0,5.0,47,0.00,,---,0.00,VWS V14.01,2013-04-13 16:00:00,
2013-04-13 12:01:00,73.7,52.2,29.93,NNE,28,0.0,0.0,47,0.00,,---,0.00,VWS V14.01,2013-04-13 16:01:00,
2013-04-13 12:04:00,73.5,51.5,29.93,NNE,26,2.0,3.0,46,0.00,,---,0.00,VWS V14.01,2013-04-13 16:04:00,
2013-04-13 12:07:00,73.5,52.1,29.93,NNE,29,0.0,3.0,47,0.00,,---,0.00,VWS V14.01,2013-04-13 16:07:00,
2013-04-13 12:13:00,73.7,52.8,29.93,North,5,0.0,4.0,48,0.00,,---,0.00,VWS V14.01,2013-04-13 16:13:00,
2013-04-13 12:15:00,74.0,52.5,29.93,North,355,4.0,4.0,47,0.00,,---,0.00,VWS V14.01,2013-04-13 16:15:00,
2013-04-13 12:16:00,74.0,51.9,29.93,North,355,3.0,4.0,46,0.00,,---,0.00,VWS V14.01,2013-04-13 16:16:00,
2013-04-13 12:19:00,73.7,52.2,29.93,NNE,19,1.0,4.0,47,0.00,,---,0.00,VWS V14.01,2013-04-13 16:19:00,
2013-04-13 12:22:00,74.1,53.7,29.93,NNE,24,0.0,4.0,49,0.00,,---,0.00,VWS V14.01,2013-04-13 16:22:00,
2013-04-13 12:25:00,74.5,53.5,29.93,NNE,22,0.0,4.0,48,0.00,,---,0.00,VWS V14.01,2013-04-13 16:25:00,
2013-04-13 12:28:00,74.4,52.9,29.93,NNW,348,0.0,5.0,47,0.00,,---,0.00,VWS V14.01,2013-04-13 16:28:00,
2013-04-13 12:30:00,74.5,52.4,29.94,NE,53,0.0,5.0,46,0.00,,---,0.00,VWS V14.01,2013-04-13 16:30:00,
2013-04-13 12:31:00,74.4,51.7,29.94,NE,53,0.0,0.0,45,0.00,,---,0.00,VWS V14.01,2013-04-13 16:31:00,
2013-04-13 12:34:00,74.8,52.7,29.94,NE,53,0.0,0.0,46,0.00,,---,0.00,VWS V14.01,2013-04-13 16:34:00,
2013-04-13 12:37:00,75.1,52.3,29.94,NE,53,1.0,3.0,45,0.00,,---,0.00,VWS V14.01,2013-04-13 16:37:00,
2013-04-13 12:40:00,75.1,52.9,29.94,NNE,33,0.0,3.0,46,0.00,,---,0.00,VWS V14.01,2013-04-13 16:40:00,
2013-04-13 12:43:00,75.0,52.8,29.94,NNE,26,2.0,3.0,46,0.00,,---,0.00,VWS V14.01,2013-04-13 16:43:00,
2013-04-13 12:45:00,75.0,52.8,29.94,NNE,26,0.0,3.0,46,0.00,,---,0.00,VWS V14.01,2013-04-13 16:45:00,
2013-04-13 12:46:00,75.0,52.8,29.94,NE,56,0.0,5.0,46,0.00,,---,0.00,VWS V14.01,2013-04-13 16:46:00,
2013-04-13 12:49:00,75.5,52.7,29.94,NE,56,1.0,5.0,45,0.00,,---,0.00,VWS V14.01,2013-04-13 16:49:00,
2013-04-13 12:52:00,75.4,52.6,29.94,NE,36,2.0,5.0,45,0.00,,---,0.00,VWS V14.01,2013-04-13 16:52:00,
2013-04-13 12:55:00,75.5,52.7,29.94,North,9,1.0,5.0,45,0.00,,---,0.00,VWS V14.01,2013-04-13 16:55:00,
2013-04-13 12:59:00,75.7,53.5,29.94,NNE,13,0.0,5.0,46,0.00,,---,0.00,VWS V14.01,2013-04-13 16:59:00,
2013-04-13 13:00:00,75.8,53.6,29.94,NNE,14,5.0,5.0,46,0.00,,---,0.00,VWS V14.01,2013-04-13 17:00:00,
2013-04-13 13:11:00,76.4,53.5,29.94,ENE,61,0.0,5.0,45,0.00,,---,0.00,VWS V14.01,2013-04-13 17:11:00,
2013-04-13 13:14:00,76.6,52.5,29.93,North,360,1.0,5.0,43,0.00,,---,0.00,VWS V14.01,2013-04-13 17:14:00,
2013-04-13 13:15:00,76.6,53.1,29.93,North,360,0.0,5.0,44,0.00,,---,0.00,VWS V14.01,2013-04-13 17:15:00,
2013-04-13 13:20:00,76.2,52.1,29.93,North,5,0.0,6.0,43,0.00,,---,0.00,VWS V14.01,2013-04-13 17:20:00,
2013-04-13 13:23:00,76.2,51.5,29.93,North,5,0.0,6.0,42,0.00,,---,0.00,VWS V14.01,2013-04-13 17:23:00,
2013-04-13 13:26:00,76.3,51.5,29.93,North,5,0.0,6.0,42,0.00,,---,0.00,VWS V14.01,2013-04-13 17:26:00,
2013-04-13 13:30:00,76.5,52.4,29.93,North,9,0.0,6.0,43,0.00,,---,0.00,VWS V14.01,2013-04-13 17:30:00,
2013-04-13 13:33:00,77.1,52.9,29.93,North,9,0.0,0.0,43,0.00,,---,0.00,VWS V14.01,2013-04-13 17:33:00,
2013-04-13 13:42:00,77.6,52.1,29.93,North,10,0.0,4.0,41,0.00,,---,0.00,VWS V14.01,2013-04-13 17:42:00,
2013-04-13 13:45:00,77.9,53.6,29.92,North,10,0.0,4.0,43,0.00,,---,0.00,VWS V14.01,2013-04-13 17:45:00,
2013-04-13 13:48:00,78.3,53.3,29.92,East,80,0.0,2.0,42,0.00,,---,0.00,VWS V14.01,2013-04-13 17:48:00,
2013-04-13 13:51:00,78.4,53.4,29.92,East,80,0.0,2.0,42,0.00,,---,0.00,VWS V14.01,2013-04-13 17:51:00,
2013-04-13 13:54:00,78.5,54.2,29.92,East,80,0.0,2.0,43,0.00,,---,0.00,VWS V14.01,2013-04-13 17:54:00,
2013-04-13 13:57:00,78.4,52.8,29.92,SE,131,0.0,4.0,41,0.00,,---,0.00,VWS V14.01,2013-04-13 17:57:00,
2013-04-13 14:00:00,78.2,54.5,29.92,SSE,168,3.0,4.0,44,0.00,,---,0.00,VWS V14.01,2013-04-13 18:00:00,
2013-04-13 14:03:00,77.9,55.5,29.92,SSE,167,0.0,4.0,46,0.00,,---,0.00,VWS V14.01,2013-04-13 18:03:00,
2013-04-13 14:06:00,77.4,55.0,29.92,SE,130,1.0,7.0,46,0.00,,---,0.00,VWS V14.01,2013-04-13 18:06:00,
2013-04-13 14:09:00,77.1,54.2,29.92,SSE,167,5.0,7.0,45,0.00,,---,0.00,VWS V14.01,2013-04-13 18:09:00,
2013-04-13 14:12:00,76.5,53.0,29.92,South,171,1.0,7.0,44,0.00,,---,0.00,VWS V14.01,2013-04-13 18:12:00,
2013-04-13 14:15:00,76.2,53.3,29.92,SE,142,3.0,7.0,45,0.00,,---,0.00,VWS V14.01,2013-04-13 18:15:00,
2013-04-13 14:19:00,75.5,52.1,29.92,SSE,165,3.0,5.0,44,0.00,,---,0.00,VWS V14.01,2013-04-13 18:19:00,
2013-04-13 14:22:00,75.0,52.2,29.92,SSE,155,3.0,6.0,45,0.00,,---,0.00,VWS V14.01,2013-04-13 18:22:00,
2013-04-13 14:25:00,74.7,52.6,29.92,SSE,155,0.0,6.0,46,0.00,,---,0.00,VWS V14.01,2013-04-13 18:25:00,
2013-04-13 14:28:00,74.6,52.5,29.92,South,176,1.0,6.0,46,0.00,,---,0.00,VWS V14.01,2013-04-13 18:28:00,
2013-04-13 14:30:00,74.4,51.7,29.92,SSE,168,2.0,6.0,45,0.00,,---,0.00,VWS V14.01,2013-04-13 18:30:00,
2013-04-13 14:31:00,74.2,52.1,29.92,SE,145,5.0,5.0,46,0.00,,---,0.00,VWS V14.01,2013-04-13 18:31:00,
2013-04-13 14:34:00,73.9,51.2,29.92,South,178,4.0,5.0,45,0.00,,---,0.00,VWS V14.01,2013-04-13 18:34:00,
2013-04-13 14:37:00,73.5,51.5,29.92,SSE,155,3.0,5.0,46,0.00,,---,0.00,VWS V14.01,2013-04-13 18:37:00,
2013-04-13 14:40:00,73.2,50.6,29.92,South,169,4.0,5.0,45,0.00,,---,0.00,VWS V14.01,2013-04-13 18:40:00,
2013-04-13 14:43:00,72.7,50.8,29.92,SSE,159,3.0,7.0,46,0.00,,---,0.00,VWS V14.01,2013-04-13 18:43:00,
2013-04-13 14:45:00,72.5,50.0,29.92,SSE,161,0.0,7.0,45,0.00,,---,0.00,VWS V14.01,2013-04-13 18:45:00,
2013-04-13 14:46:00,72.4,50.5,29.92,SSE,163,2.0,5.0,46,0.00,,---,0.00,VWS V14.01,2013-04-13 18:46:00,
2013-04-13 14:49:00,72.3,50.4,29.92,SSE,153,5.0,7.0,46,0.00,,---,0.00,VWS V14.01,2013-04-13 18:49:00,
2013-04-13 14:52:00,72.1,49.6,29.92,SE,142,4.0,7.0,45,0.00,,---,0.00,VWS V14.01,2013-04-13 18:52:00,
2013-04-13 14:55:00,72.0,49.5,29.92,South,180,4.0,7.0,45,0.00,,---,0.00,VWS V14.01,2013-04-13 18:55:00,
2013-04-13 14:58:00,71.7,49.8,29.92,SE,144,1.0,7.0,46,0.00,,---,0.00,VWS V14.01,2013-04-13 18:58:00,
2013-04-13 15:00:00,71.6,50.3,29.92,SSE,150,3.0,7.0,47,0.00,,---,0.00,VWS V14.01,2013-04-13 19:00:00,
2013-04-13 15:01:00,71.7,50.4,29.92,South,169,3.0,5.0,47,0.00,,---,0.00,VWS V14.01,2013-04-13 19:01:00,
2013-04-13 15:04:00,71.6,49.2,29.92,South,173,4.0,6.0,45,0.00,,---,0.00,VWS V14.01,2013-04-13 19:04:00,
2013-04-13 15:07:00,71.5,49.7,29.92,SSE,162,1.0,6.0,46,0.00,,---,0.00,VWS V14.01,2013-04-13 19:07:00,
2013-04-13 15:10:00,71.5,49.7,29.92,SSE,147,2.0,6.0,46,0.00,,---,0.00,VWS V14.01,2013-04-13 19:10:00,
2013-04-13 15:13:00,71.5,50.8,29.92,South,171,4.0,9.0,48,0.00,,---,0.00,VWS V14.01,2013-04-13 19:13:00,
2013-04-13 15:15:00,71.5,50.8,29.91,South,171,0.0,9.0,48,0.00,,---,0.00,VWS V14.01,2013-04-13 19:15:00,
2013-04-13 15:16:00,71.3,50.0,29.91,South,171,3.0,4.0,47,0.00,,---,0.00,VWS V14.01,2013-04-13 19:16:00,
2013-04-13 15:19:00,71.2,50.5,29.91,SSE,155,5.0,5.0,48,0.00,,---,0.00,VWS V14.01,2013-04-13 19:19:00,
2013-04-13 15:22:00,71.3,50.0,29.91,SE,139,1.0,5.0,47,0.00,,---,0.00,VWS V14.01,2013-04-13 19:22:00,
2013-04-13 15:25:00,71.2,50.0,29.91,SSE,165,4.0,5.0,47,0.00,,---,0.00,VWS V14.01,2013-04-13 19:25:00,
2013-04-13 15:28:00,71.2,50.0,29.91,SSE,163,0.0,5.0,47,0.00,,---,0.00,VWS V14.01,2013-04-13 19:28:00,
2013-04-13 15:30:00,71.2,50.0,29.90,SSE,163,0.0,5.0,47,0.00,,---,0.00,VWS V14.01,2013-04-13 19:30:00,
2013-04-13 15:31:00,71.2,50.0,29.90,SSE,164,3.0,3.0,47,0.00,,---,0.00,VWS V14.01,2013-04-13 19:31:00,
2013-04-13 15:34:00,71.2,50.0,29.90,SSE,147,5.0,5.0,47,0.00,,---,0.00,VWS V14.01,2013-04-13 19:34:00,
2013-04-13 15:37:00,71.0,49.8,29.90,SSE,159,2.0,5.0,47,0.00,,---,0.00,VWS V14.01,2013-04-13 19:37:00,
2013-04-13 15:40:00,71.0,49.2,29.90,SSE,160,4.0,5.0,46,0.00,,---,0.00,VWS V14.01,2013-04-13 19:40:00,
2013-04-13 15:43:00,70.9,49.7,29.90,SSE,147,3.0,5.0,47,0.00,,---,0.00,VWS V14.01,2013-04-13 19:43:00,
2013-04-13 15:45:00,70.9,50.2,29.90,SE,142,4.0,5.0,48,0.00,,---,0.00,VWS V14.01,2013-04-13 19:45:00,
2013-04-13 15:46:00,70.8,50.7,29.90,SE,145,4.0,7.0,49,0.00,,---,0.00,VWS V14.01,2013-04-13 19:46:00,
2013-04-13 15:49:00,70.7,50.1,29.90,SE,144,0.0,7.0,48,0.00,,---,0.00,VWS V14.01,2013-04-13 19:49:00,
2013-04-13 15:52:00,70.7,50.1,29.90,South,169,3.0,7.0,48,0.00,,---,0.00,VWS V14.01,2013-04-13 19:52:00,
2013-04-13 15:55:00,70.7,50.6,29.90,SE,144,3.0,7.0,49,0.00,,---,0.00,VWS V14.01,2013-04-13 19:55:00,
2013-04-13 15:58:00,70.6,50.0,29.90,SSE,150,2.0,7.0,48,0.00,,---,0.00,VWS V14.01,2013-04-13 19:58:00,
2013-04-13 16:00:00,70.6,50.0,29.90,SSE,150,1.0,7.0,48,0.00,,---,0.00,VWS V14.01,2013-04-13 20:00:00,
2013-04-13 16:01:00,70.5,49.3,29.90,SSE,155,0.0,3.0,47,0.00,,---,0.00,VWS V14.01,2013-04-13 20:01:00,
2013-04-13 16:04:00,70.4,49.8,29.90,SSE,153,4.0,5.0,48,0.00,,---,0.00,VWS V14.01,2013-04-13 20:04:00,
2013-04-13 16:07:00,70.3,49.7,29.90,SE,136,3.0,6.0,48,0.00,,---,0.00,VWS V14.01,2013-04-13 20:07:00,
2013-04-13 16:10:00,70.2,50.2,29.90,SE,136,2.0,6.0,49,0.00,,---,0.00,VWS V14.01,2013-04-13 20:10:00,
2013-04-13 16:13:00,70.2,50.2,29.90,SSE,162,1.0,6.0,49,0.00,,---,0.00,VWS V14.01,2013-04-13 20:13:00,
2013-04-13 16:15:00,70.1,49.5,29.90,SSE,162,0.0,6.0,48,0.00,,---,0.00,VWS V14.01,2013-04-13 20:15:00,
2013-04-13 16:16:00,70.1,50.1,29.90,SSE,163,3.0,4.0,49,0.00,,---,0.00,VWS V14.01,2013-04-13 20:16:00,
2013-04-13 16:19:00,70.0,50.0,29.90,SSE,161,2.0,5.0,49,0.00,,---,0.00,VWS V14.01,2013-04-13 20:19:00,
2013-04-13 16:22:00,70.0,49.4,29.90,SSE,161,3.0,5.0,48,0.00,,---,0.00,VWS V14.01,2013-04-13 20:22:00,
2013-04-13 16:26:00,69.9,49.9,29.90,NNE,22,2.0,5.0,49,0.00,,---,0.00,VWS V14.01,2013-04-13 20:26:00,
2013-04-13 16:29:00,69.9,49.9,29.89,SSE,164,2.0,5.0,49,0.00,,---,0.00,VWS V14.01,2013-04-13 20:29:00,
2013-04-13 16:30:00,69.9,49.3,29.89,SSE,164,0.0,5.0,48,0.00,,---,0.00,VWS V14.01,2013-04-13 20:30:00,
2013-04-13 16:32:00,70.0,50.0,29.89,SSE,163,3.0,4.0,49,0.00,,---,0.00,VWS V14.01,2013-04-13 20:32:00,
2013-04-13 16:35:00,69.9,49.3,29.89,SSE,165,1.0,5.0,48,0.00,,---,0.00,VWS V14.01,2013-04-13 20:35:00,
2013-04-13 16:38:00,69.8,48.7,29.89,ENE,65,2.0,5.0,47,0.00,,---,0.00,VWS V14.01,2013-04-13 20:38:00,
2013-04-13 16:41:00,69.7,49.2,29.89,South,173,3.0,5.0,48,0.00,,---,0.00,VWS V14.01,2013-04-13 20:41:00,
2013-04-13 16:44:00,69.7,49.2,29.89,South,173,3.0,5.0,48,0.00,,---,0.00,VWS V14.01,2013-04-13 20:44:00,
2013-04-13 16:45:00,69.7,49.2,29.89,South,173,2.0,5.0,48,0.00,,---,0.00,VWS V14.01,2013-04-13 20:45:00,
2013-04-13 16:47:00,69.6,49.1,29.89,ESE,117,2.0,4.0,48,0.00,,---,0.00,VWS V14.01,2013-04-13 20:47:00,
2013-04-13 16:53:00,69.5,50.1,29.89,SSE,150,2.0,4.0,50,0.00,,---,0.00,VWS V14.01,2013-04-13 20:53:00,
2013-04-13 16:56:00,69.5,49.5,29.89,SSE,150,3.0,4.0,49,0.00,,---,0.00,VWS V14.01,2013-04-13 20:56:00,
2013-04-13 16:59:00,69.5,49.5,29.90,SSE,150,2.0,4.0,49,0.00,,---,0.00,VWS V14.01,2013-04-13 20:59:00,
2013-04-13 17:00:00,69.5,49.5,29.90,SSE,150,1.0,4.0,49,0.00,,---,0.00,VWS V14.01,2013-04-13 21:00:00,
2013-04-13 17:02:00,69.5,49.5,29.90,SSE,150,0.0,1.0,49,0.00,,---,0.00,VWS V14.01,2013-04-13 21:02:00,
2013-04-13 17:05:00,69.5,49.5,29.90,SSE,150,0.0,1.0,49,0.00,,---,0.00,VWS V14.01,2013-04-13 21:05:00,
2013-04-13 17:08:00,69.4,50.0,29.90,SSE,156,2.0,3.0,50,0.00,,---,0.00,VWS V14.01,2013-04-13 21:08:00,
2013-04-13 17:11:00,69.4,50.0,29.90,SSE,159,2.0,4.0,50,0.00,,---,0.00,VWS V14.01,2013-04-13 21:11:00,
2013-04-13 17:14:00,69.4,50.0,29.90,SSE,159,2.0,4.0,50,0.00,,---,0.00,VWS V14.01,2013-04-13 21:14:00,
2013-04-13 17:15:00,69.4,50.0,29.90,SSE,159,1.0,4.0,50,0.00,,---,0.00,VWS V14.01,2013-04-13 21:15:00,
2013-04-13 17:17:00,69.4,50.5,29.90,SSE,163,2.0,5.0,51,0.00,,---,0.00,VWS V14.01,2013-04-13 21:17:00,
2013-04-13 17:20:00,69.4,50.5,29.90,SSE,161,0.0,5.0,51,0.00,,---,0.00,VWS V14.01,2013-04-13 21:20:00,
2013-04-13 17:23:00,69.3,50.4,29.90,SE,134,3.0,5.0,51,0.00,,---,0.00,VWS V14.01,2013-04-13 21:23:00,
2013-04-13 17:26:00,69.3,50.4,29.90,SSE,161,0.0,5.0,51,0.00,,---,0.00,VWS V14.01,2013-04-13 21:26:00,
2013-04-13 17:29:00,69.2,50.3,29.90,SSE,165,2.0,5.0,51,0.00,,---,0.00,VWS V14.01,2013-04-13 21:29:00,
2013-04-13 17:30:00,69.2,50.3,29.90,SSE,165,3.0,5.0,51,0.00,,---,0.00,VWS V14.01,2013-04-13 21:30:00,
2013-04-13 17:32:00,69.2,50.8,29.90,SSE,165,0.0,3.0,52,0.00,,---,0.00,VWS V14.01,2013-04-13 21:32:00,
2013-04-13 17:35:00,69.1,50.8,29.90,SSE,165,2.0,3.0,52,0.00,,---,0.00,VWS V14.01,2013-04-13 21:35:00,
2013-04-13 17:38:00,69.0,50.7,29.90,SSE,165,1.0,4.0,52,0.00,,---,0.00,VWS V14.01,2013-04-13 21:38:00,
2013-04-13 17:41:00,69.0,50.7,29.90,SSE,165,2.0,4.0,52,0.00,,---,0.00,VWS V14.01,2013-04-13 21:41:00,
2013-04-13 17:44:00,68.8,50.0,29.90,SSE,164,2.0,4.0,51,0.00,,---,0.00,VWS V14.01,2013-04-13 21:44:00,
2013-04-13 17:45:00,68.8,50.0,29.90,SSE,164,3.0,4.0,51,0.00,,---,0.00,VWS V14.01,2013-04-13 21:45:00,
2013-04-13 17:47:00,68.7,50.4,29.90,SSE,164,2.0,3.0,52,0.00,,---,0.00,VWS V14.01,2013-04-13 21:47:00,
2013-04-13 17:50:00,68.6,50.8,29.90,SSE,164,0.0,3.0,53,0.00,,---,0.00,VWS V14.01,2013-04-13 21:50:00,
2013-04-13 17:53:00,68.6,50.8,29.90,SSE,164,0.0,3.0,53,0.00,,---,0.00,VWS V14.01,2013-04-13 21:53:00,
2013-04-13 17:56:00,68.5,50.7,29.90,SSE,164,0.0,3.0,53,0.00,,---,0.00,VWS V14.01,2013-04-13 21:56:00,
2013-04-13 17:59:00,68.4,50.6,29.90,SSE,164,0.0,3.0,53,0.00,,---,0.00,VWS V14.01,2013-04-13 21:59:00,
2013-04-13 18:00:00,68.4,50.1,29.90,SSE,164,0.0,3.0,52,0.00,,---,0.00,VWS V14.01,2013-04-13 22:00:00,
2013-04-13 18:02:00,68.3,50.0,29.90,SSE,164,2.0,3.0,52,0.00,,---,0.00,VWS V14.01,2013-04-13 22:02:00,
2013-04-13 18:05:00,68.3,50.5,29.90,SSE,164,1.0,3.0,53,0.00,,---,0.00,VWS V14.01,2013-04-13 22:05:00,
2013-04-13 18:08:00,68.3,51.5,29.90,SSE,164,0.0,3.0,55,0.00,,---,0.00,VWS V14.01,2013-04-13 22:08:00,
2013-04-13 18:11:00,68.3,51.0,29.90,SSE,164,0.0,3.0,54,0.00,,---,0.00,VWS V14.01,2013-04-13 22:11:00,
2013-04-13 18:14:00,68.3,51.0,29.91,SSE,164,0.0,3.0,54,0.00,,---,0.00,VWS V14.01,2013-04-13 22:14:00,
2013-04-13 18:15:00,68.3,51.0,29.91,SSE,164,0.0,3.0,54,0.00,,---,0.00,VWS V14.01,2013-04-13 22:15:00,
2013-04-13 18:17:00,68.2,51.4,29.91,SSE,164,0.0,0.0,55,0.00,,---,0.00,VWS V14.01,2013-04-13 22:17:00,
2013-04-13 18:20:00,68.1,51.3,29.91,SSE,164,0.0,0.0,55,0.00,,---,0.00,VWS V14.01,2013-04-13 22:20:00,
2013-04-13 18:23:00,68.1,51.8,29.91,SSE,164,0.0,0.0,56,0.00,,---,0.00,VWS V14.01,2013-04-13 22:23:00,
2013-04-13 18:26:00,68.1,52.3,29.91,SSE,164,0.0,0.0,57,0.00,,---,0.00,VWS V14.01,2013-04-13 22:26:00,
2013-04-13 18:29:00,68.0,52.2,29.91,SSE,164,0.0,3.0,57,0.00,,---,0.00,VWS V14.01,2013-04-13 22:29:00,
2013-04-13 18:30:00,68.0,52.2,29.91,SSE,164,0.0,3.0,57,0.00,,---,0.00,VWS V14.01,2013-04-13 22:30:00,
2013-04-13 18:32:00,68.0,52.2,29.91,SSE,164,1.0,4.0,57,0.00,,---,0.00,VWS V14.01,2013-04-13 22:32:00,
2013-04-13 18:35:00,67.8,52.0,29.91,SSE,164,0.0,4.0,57,0.00,,---,0.00,VWS V14.01,2013-04-13 22:35:00,
2013-04-13 18:38:00,67.7,52.4,29.91,SSE,164,0.0,4.0,58,0.00,,---,0.00,VWS V14.01,2013-04-13 22:38:00,
2013-04-13 18:41:00,67.6,52.3,29.91,SSE,164,0.0,4.0,58,0.00,,---,0.00,VWS V14.01,2013-04-13 22:41:00,
2013-04-13 18:44:00,67.5,52.7,29.92,SSE,164,0.0,4.0,59,0.00,,---,0.00,VWS V14.01,2013-04-13 22:44:00,
2013-04-13 18:45:00,67.5,52.7,29.92,SSE,164,0.0,4.0,59,0.00,,---,0.00,VWS V14.01,2013-04-13 22:45:00,
2013-04-13 18:47:00,67.4,52.6,29.92,SSE,164,1.0,2.0,59,0.00,,---,0.00,VWS V14.01,2013-04-13 22:47:00,
2013-04-13 18:50:00,67.3,52.5,29.92,SSE,164,0.0,2.0,59,0.00,,---,0.00,VWS V14.01,2013-04-13 22:50:00,
2013-04-13 18:53:00,67.2,52.9,29.92,SSE,164,0.0,2.0,60,0.00,,---,0.00,VWS V14.01,2013-04-13 22:53:00,
2013-04-13 18:56:00,67.1,52.8,29.92,SSE,164,0.0,2.0,60,0.00,,---,0.00,VWS V14.01,2013-04-13 22:56:00,
2013-04-13 18:59:00,67.0,52.7,29.92,SSE,164,3.0,3.0,60,0.00,,---,0.00,VWS V14.01,2013-04-13 22:59:00,
2013-04-13 19:00:00,67.0,52.7,29.92,SSE,164,3.0,3.0,60,0.00,,---,0.00,VWS V14.01,2013-04-13 23:00:00,
2013-04-13 19:02:00,66.9,52.6,29.92,SSE,164,1.0,3.0,60,0.00,,---,0.00,VWS V14.01,2013-04-13 23:02:00,
2013-04-13 19:05:00,66.8,52.9,29.92,SSE,164,0.0,3.0,61,0.00,,---,0.00,VWS V14.01,2013-04-13 23:05:00,
2013-04-13 19:08:00,66.7,52.8,29.92,SSE,164,0.0,3.0,61,0.00,,---,0.00,VWS V14.01,2013-04-13 23:08:00,
2013-04-13 19:12:00,66.6,53.2,29.92,SSE,164,0.0,3.0,62,0.00,,---,0.00,VWS V14.01,2013-04-13 23:12:00,
2013-04-13 19:15:00,66.5,53.1,29.92,SSE,164,0.0,3.0,62,0.00,,---,0.00,VWS V14.01,2013-04-13 23:15:00,
2013-04-13 19:18:00,66.5,53.5,29.92,SSE,164,0.0,0.0,63,0.00,,---,0.00,VWS V14.01,2013-04-13 23:18:00,
2013-04-13 19:21:00,66.3,53.8,29.92,SSE,164,2.0,3.0,64,0.00,,---,0.00,VWS V14.01,2013-04-13 23:21:00,
2013-04-13 19:24:00,66.1,53.6,29.92,SSE,164,0.0,3.0,64,0.00,,---,0.00,VWS V14.01,2013-04-13 23:24:00,
2013-04-13 19:27:00,66.0,53.5,29.92,SSE,164,0.0,3.0,64,0.00,,---,0.00,VWS V14.01,2013-04-13 23:27:00,
2013-04-13 19:30:00,65.8,53.7,29.92,SSE,164,0.0,3.0,65,0.00,,---,0.00,VWS V14.01,2013-04-13 23:30:00,
2013-04-13 19:33:00,65.7,53.6,29.92,SSE,164,0.0,0.0,65,0.00,,---,0.00,VWS V14.01,2013-04-13 23:33:00,
2013-04-13 19:36:00,65.6,53.5,29.92,SSE,164,0.0,0.0,65,0.00,,---,0.00,VWS V14.01,2013-04-13 23:36:00,
2013-04-13 19:39:00,65.5,53.4,29.92,SSE,164,1.0,1.0,65,0.00,,---,0.00,VWS V14.01,2013-04-13 23:39:00,
2013-04-13 19:42:00,65.4,53.3,29.92,SSE,164,0.0,1.0,65,0.00,,---,0.00,VWS V14.01,2013-04-13 23:42:00,
2013-04-13 19:45:00,65.3,53.2,29.93,SSE,164,0.0,1.0,65,0.00,,---,0.00,VWS V14.01,2013-04-13 23:45:00,
2013-04-13 19:48:00,65.2,53.2,29.93,SSE,164,0.0,0.0,65,0.00,,---,0.00,VWS V14.01,2013-04-13 23:48:00,
2013-04-13 19:51:00,65.2,53.6,29.93,SSE,164,0.0,0.0,66,0.00,,---,0.00,VWS V14.01,2013-04-13 23:51:00,
2013-04-13 19:54:00,65.1,53.5,29.93,SSE,164,0.0,0.0,66,0.00,,---,0.00,VWS V14.01,2013-04-13 23:54:00,
2013-04-13 19:57:00,65.0,53.4,29.93,SSE,164,0.0,0.0,66,0.00,,---,0.00,VWS V14.01,2013-04-13 23:57:00,
2013-04-13 20:00:00,64.9,53.3,29.94,SSE,164,0.0,0.0,66,0.00,,---,0.00,VWS V14.01,2013-04-14 00:00:00,
2013-04-13 20:03:00,64.8,53.2,29.94,SSE,164,0.0,0.0,66,0.00,,---,0.00,VWS V14.01,2013-04-14 00:03:00,
2013-04-13 20:06:00,64.6,53.0,29.94,SSE,164,0.0,0.0,66,0.00,,---,0.00,VWS V14.01,2013-04-14 00:06:00,
2013-04-13 20:09:00,64.5,53.3,29.94,SSE,164,0.0,0.0,67,0.00,,---,0.00,VWS V14.01,2013-04-14 00:09:00,
2013-04-13 20:12:00,64.3,53.1,29.94,SSE,164,0.0,0.0,67,0.00,,---,0.00,VWS V14.01,2013-04-14 00:12:00,
2013-04-13 20:15:00,64.2,53.0,29.95,SSE,164,0.0,0.0,67,0.00,,---,0.00,VWS V14.01,2013-04-14 00:15:00,
2013-04-13 20:18:00,64.1,52.9,29.95,SSE,164,0.0,0.0,67,0.00,,---,0.00,VWS V14.01,2013-04-14 00:18:00,
2013-04-13 20:21:00,63.9,53.1,29.95,SSE,164,0.0,0.0,68,0.00,,---,0.00,VWS V14.01,2013-04-14 00:21:00,
2013-04-13 20:24:00,63.7,53.0,29.95,SSE,164,0.0,0.0,68,0.00,,---,0.00,VWS V14.01,2013-04-14 00:24:00,
2013-04-13 20:27:00,63.6,52.9,29.95,SSE,164,0.0,0.0,68,0.00,,---,0.00,VWS V14.01,2013-04-14 00:27:00,
2013-04-13 20:30:00,63.5,53.2,29.95,SSE,164,0.0,0.0,69,0.00,,---,0.00,VWS V14.01,2013-04-14 00:30:00,
2013-04-13 20:33:00,63.3,53.4,29.95,SSE,164,0.0,0.0,70,0.00,,---,0.00,VWS V14.01,2013-04-14 00:33:00,
2013-04-13 20:36:00,63.1,53.2,29.95,SSE,164,0.0,0.0,70,0.00,,---,0.00,VWS V14.01,2013-04-14 00:36:00,
2013-04-13 20:39:00,63.0,53.1,29.95,SSE,164,0.0,0.0,70,0.00,,---,0.00,VWS V14.01,2013-04-14 00:39:00,
2013-04-13 20:42:00,62.8,53.3,29.95,SSE,164,0.0,0.0,71,0.00,,---,0.00,VWS V14.01,2013-04-14 00:42:00,
2013-04-13 20:45:00,62.7,53.2,29.95,SSE,164,0.0,0.0,71,0.00,,---,0.00,VWS V14.01,2013-04-14 00:45:00,
2013-04-13 20:48:00,62.5,53.4,29.95,SSE,164,0.0,0.0,72,0.00,,---,0.00,VWS V14.01,2013-04-14 00:48:00,
2013-04-13 20:51:00,62.3,52.8,29.95,SSE,164,0.0,0.0,71,0.00,,---,0.00,VWS V14.01,2013-04-14 00:51:00,
2013-04-13 20:54:00,62.2,52.7,29.95,SSE,164,0.0,0.0,71,0.00,,---,0.00,VWS V14.01,2013-04-14 00:54:00,
2013-04-13 20:57:00,62.1,53.3,29.95,SSE,164,0.0,0.0,73,0.00,,---,0.00,VWS V14.01,2013-04-14 00:57:00,
2013-04-13 21:00:00,62.0,53.3,29.96,SSE,164,0.0,0.0,73,0.00,,---,0.00,VWS V14.01,2013-04-14 01:00:00,
2013-04-13 21:03:00,61.8,52.7,29.96,SSE,164,0.0,0.0,72,0.00,,---,0.00,VWS V14.01,2013-04-14 01:03:00,
2013-04-13 21:06:00,61.6,52.9,29.96,SSE,164,0.0,0.0,73,0.00,,---,0.00,VWS V14.01,2013-04-14 01:06:00,
2013-04-13 21:09:00,61.5,53.2,29.96,SSE,164,0.0,0.0,74,0.00,,---,0.00,VWS V14.01,2013-04-14 01:09:00,
2013-04-13 21:12:00,61.4,53.4,29.96,SSE,164,0.0,0.0,75,0.00,,---,0.00,VWS V14.01,2013-04-14 01:12:00,
2013-04-13 21:15:00,61.3,53.7,29.97,SSE,164,0.0,0.0,76,0.00,,---,0.00,VWS V14.01,2013-04-14 01:15:00,
2013-04-13 21:18:00,61.1,53.5,29.97,SSE,164,0.0,0.0,76,0.00,,---,0.00,VWS V14.01,2013-04-14 01:18:00,
2013-04-13 21:21:00,60.9,53.7,29.97,SSE,164,0.0,0.0,77,0.00,,---,0.00,VWS V14.01,2013-04-14 01:21:00,
2013-04-13 21:24:00,60.8,53.2,29.97,SSE,164,0.0,0.0,76,0.00,,---,0.00,VWS V14.01,2013-04-14 01:24:00,
2013-04-13 21:27:00,60.6,53.0,29.97,SSE,164,0.0,0.0,76,0.00,,---,0.00,VWS V14.01,2013-04-14 01:27:00,
2013-04-13 21:30:00,60.6,53.4,29.98,SSE,164,0.0,0.0,77,0.00,,---,0.00,VWS V14.01,2013-04-14 01:30:00,
2013-04-13 21:34:00,60.4,53.2,29.98,SSE,164,0.0,0.0,77,0.00,,---,0.00,VWS V14.01,2013-04-14 01:34:00,
2013-04-13 21:37:00,60.3,53.1,29.98,SSE,164,0.0,0.0,77,0.00,,---,0.00,VWS V14.01,2013-04-14 01:37:00,
2013-04-13 21:43:00,60.0,53.1,29.98,SSE,164,0.0,0.0,78,0.00,,---,0.00,VWS V14.01,2013-04-14 01:43:00,
2013-04-13 21:45:00,59.9,53.4,29.98,SSE,164,0.0,0.0,79,0.00,,---,0.00,VWS V14.01,2013-04-14 01:45:00,
2013-04-13 21:46:00,59.8,53.3,29.98,SSE,164,0.0,0.0,79,0.00,,---,0.00,VWS V14.01,2013-04-14 01:46:00,
2013-04-13 21:49:00,59.7,53.2,29.98,SSE,164,0.0,0.0,79,0.00,,---,0.00,VWS V14.01,2013-04-14 01:49:00,
2013-04-13 21:52:00,59.6,53.4,29.98,SSE,164,0.0,0.0,80,0.00,,---,0.00,VWS V14.01,2013-04-14 01:52:00,
2013-04-13 21:58:00,59.4,53.2,29.98,SSE,164,0.0,0.0,80,0.00,,---,0.00,VWS V14.01,2013-04-14 01:58:00,
2013-04-13 22:00:00,59.3,53.1,29.99,SSE,164,0.0,0.0,80,0.00,,---,0.00,VWS V14.01,2013-04-14 02:00:00,
2013-04-13 22:01:00,59.3,53.1,29.99,SSE,164,0.0,0.0,80,0.00,,---,0.00,VWS V14.01,2013-04-14 02:01:00,
2013-04-13 22:04:00,59.1,52.9,29.99,SSE,164,0.0,0.0,80,0.00,,---,0.00,VWS V14.01,2013-04-14 02:04:00,
2013-04-13 22:07:00,59.0,52.8,29.99,SSE,164,0.0,0.0,80,0.00,,---,0.00,VWS V14.01,2013-04-14 02:07:00,
2013-04-13 22:10:00,58.9,52.4,29.99,SSE,164,0.0,0.0,79,0.00,,---,0.00,VWS V14.01,2013-04-14 02:10:00,
2013-04-13 22:13:00,58.9,52.8,29.99,SSE,164,0.0,0.0,80,0.00,,---,0.00,VWS V14.01,2013-04-14 02:13:00,
2013-04-13 22:15:00,58.8,52.7,29.98,SSE,164,0.0,0.0,80,0.00,,---,0.00,VWS V14.01,2013-04-14 02:15:00,
2013-04-13 22:16:00,58.8,52.7,29.98,SSE,164,0.0,0.0,80,0.00,,---,0.00,VWS V14.01,2013-04-14 02:16:00,
2013-04-13 22:19:00,58.7,52.6,29.98,SSE,164,0.0,0.0,80,0.00,,---,0.00,VWS V14.01,2013-04-14 02:19:00,
2013-04-13 22:22:00,58.6,52.5,29.98,SSE,164,0.0,0.0,80,0.00,,---,0.00,VWS V14.01,2013-04-14 02:22:00,
2013-04-13 22:25:00,58.5,52.0,29.98,SSE,164,0.0,0.0,79,0.00,,---,0.00,VWS V14.01,2013-04-14 02:25:00,
2013-04-13 22:28:00,58.4,51.9,29.98,SSE,164,0.0,0.0,79,0.00,,---,0.00,VWS V14.01,2013-04-14 02:28:00,
2013-04-13 22:30:00,58.4,52.3,29.99,SSE,164,0.0,0.0,80,0.00,,---,0.00,VWS V14.01,2013-04-14 02:30:00,
2013-04-13 22:31:00,58.3,52.5,29.99,SSE,164,0.0,0.0,81,0.00,,---,0.00,VWS V14.01,2013-04-14 02:31:00,
2013-04-13 22:34:00,58.2,52.7,29.99,SSE,164,0.0,0.0,82,0.00,,---,0.00,VWS V14.01,2013-04-14 02:34:00,
2013-04-13 22:37:00,58.2,52.4,29.99,SSE,164,0.0,0.0,81,0.00,,---,0.00,VWS V14.01,2013-04-14 02:37:00,
2013-04-13 22:40:00,58.1,52.6,29.99,SSE,164,0.0,0.0,82,0.00,,---,0.00,VWS V14.01,2013-04-14 02:40:00,
2013-04-13 22:43:00,58.0,52.5,29.99,SSE,164,0.0,0.0,82,0.00,,---,0.00,VWS V14.01,2013-04-14 02:43:00,
2013-04-13 22:45:00,58.0,52.2,29.98,SSE,164,0.0,0.0,81,0.00,,---,0.00,VWS V14.01,2013-04-14 02:45:00,
2013-04-13 22:46:00,57.9,52.5,29.98,SSE,164,0.0,0.0,82,0.00,,---,0.00,VWS V14.01,2013-04-14 02:46:00,
2013-04-13 22:49:00,57.9,52.1,29.98,SSE,164,0.0,0.0,81,0.00,,---,0.00,VWS V14.01,2013-04-14 02:49:00,
2013-04-13 22:52:00,57.8,52.3,29.98,SSE,164,0.0,0.0,82,0.00,,---,0.00,VWS V14.01,2013-04-14 02:52:00,
2013-04-13 22:55:00,57.7,52.2,29.98,SSE,164,0.0,0.0,82,0.00,,---,0.00,VWS V14.01,2013-04-14 02:55:00,
2013-04-13 22:58:00,57.6,52.2,29.98,SSE,164,0.0,0.0,82,0.00,,---,0.00,VWS V14.01,2013-04-14 02:58:00,
2013-04-13 23:00:00,57.6,52.5,29.98,SSE,164,0.0,0.0,83,0.00,,---,0.00,VWS V14.01,2013-04-14 03:00:00,
2013-04-13 23:01:00,57.6,52.5,29.98,SSE,164,0.0,0.0,83,0.00,,---,0.00,VWS V14.01,2013-04-14 03:01:00,
2013-04-13 23:04:00,57.5,52.1,29.98,SSE,164,0.0,0.0,82,0.00,,---,0.00,VWS V14.01,2013-04-14 03:04:00,
2013-04-13 23:07:00,57.5,52.1,29.98,SSE,164,0.0,0.0,82,0.00,,---,0.00,VWS V14.01,2013-04-14 03:07:00,
2013-04-13 23:10:00,57.4,52.0,29.98,SSE,164,0.0,0.0,82,0.00,,---,0.00,VWS V14.01,2013-04-14 03:10:00,
2013-04-13 23:13:00,57.3,52.2,29.98,SSE,164,0.0,0.0,83,0.00,,---,0.00,VWS V14.01,2013-04-14 03:13:00,
2013-04-13 23:15:00,57.3,52.2,29.98,SSE,164,0.0,0.0,83,0.00,,---,0.00,VWS V14.01,2013-04-14 03:15:00,
2013-04-13 23:16:00,57.3,51.9,29.98,SSE,164,0.0,0.0,82,0.00,,---,0.00,VWS V14.01,2013-04-14 03:16:00,
2013-04-13 23:19:00,57.2,52.1,29.98,SSE,164,0.0,0.0,83,0.00,,---,0.00,VWS V14.01,2013-04-14 03:19:00,
2013-04-13 23:23:00,57.1,52.0,29.98,SSE,164,0.0,0.0,83,0.00,,---,0.00,VWS V14.01,2013-04-14 03:23:00,
2013-04-13 23:25:00,57.1,52.0,29.98,SSE,164,0.0,0.0,83,0.00,,---,0.00,VWS V14.01,2013-04-14 03:25:00,
2013-04-13 23:29:00,57.0,51.9,29.98,SSE,164,0.0,0.0,83,0.00,,---,0.00,VWS V14.01,2013-04-14 03:29:00,
2013-04-13 23:30:00,57.0,51.9,29.98,SSE,164,0.0,0.0,83,0.00,,---,0.00,VWS V14.01,2013-04-14 03:30:00,
2013-04-13 23:32:00,56.9,51.8,29.98,SSE,164,0.0,0.0,83,0.00,,---,0.00,VWS V14.01,2013-04-14 03:32:00,
2013-04-13 23:34:00,56.9,52.1,29.98,SSE,164,0.0,0.0,84,0.00,,---,0.00,VWS V14.01,2013-04-14 03:34:00,
2013-04-13 23:38:00,56.8,52.0,29.98,SSE,164,0.0,0.0,84,0.00,,---,0.00,VWS V14.01,2013-04-14 03:38:00,
2013-04-13 23:41:00,56.8,52.0,29.98,SSE,164,0.0,0.0,84,0.00,,---,0.00,VWS V14.01,2013-04-14 03:41:00,
2013-04-13 23:44:00,56.8,52.3,29.98,SSE,164,0.0,0.0,85,0.00,,---,0.00,VWS V14.01,2013-04-14 03:44:00,
2013-04-13 23:45:00,56.7,52.6,29.98,SSE,164,0.0,0.0,86,0.00,,---,0.00,VWS V14.01,2013-04-14 03:45:00,
2013-04-13 23:47:00,56.7,52.6,29.98,SSE,164,0.0,0.0,86,0.00,,---,0.00,VWS V14.01,2013-04-14 03:47:00,
2013-04-13 23:50:00,56.6,52.5,29.98,SSE,164,0.0,0.0,86,0.00,,---,0.00,VWS V14.01,2013-04-14 03:50:00,
2013-04-13 23:53:00,56.6,52.5,29.98,SSE,164,0.0,0.0,86,0.00,,---,0.00,VWS V14.01,2013-04-14 03:53:00,
2013-04-13 23:59:00,56.4,52.0,29.99,SSE,164,0.0,0.0,85,0.00,,---,0.00,VWS V14.01,2013-04-14 03:59:00,